createdAt,value
2019-02-02T00:00:02.712Z,17.05
2019-02-02T00:00:41.746Z,15.25
2019-02-02T00:01:17.911Z,15.68
2019-02-02T00:01:52.680Z,17.85
2019-02-02T00:02:27.197Z,17.50
2019-02-02T00:03:01.691Z,15.53
2019-02-02T00:03:36.376Z,16.00
2019-02-02T00:04:11.042Z,17.35
2019-02-02T00:04:45.556Z,17.65
2019-02-02T00:05:20.063Z,16.90
2019-02-02T00:05:54.640Z,16.25
2019-02-02T00:06:29.146Z,16.52
2019-02-02T00:07:03.915Z,17.57
2019-02-02T00:07:38.420Z,18.30
2019-02-02T00:08:12.921Z,16.23
2019-02-02T00:08:47.499Z,18.15
2019-02-02T00:09:22.752Z,16.25
2019-02-02T00:09:58.058Z,15.60
2019-02-02T00:10:32.806Z,17.35
2019-02-02T00:11:07.613Z,15.68
2019-02-02T00:11:42.120Z,16.73
2019-02-02T00:12:16.700Z,15.40
2019-02-02T00:12:51.377Z,15.50
2019-02-02T00:13:25.898Z,18.30
2019-02-02T00:14:00.506Z,16.95
2019-02-02T00:14:35.026Z,16.85
2019-02-02T00:15:11.199Z,17.02
2019-02-02T00:15:45.719Z,15.93
2019-02-02T00:16:20.543Z,17.37
2019-02-02T00:16:55.265Z,17.02
2019-02-02T00:17:29.948Z,17.67
2019-02-02T00:18:05.386Z,18.37
2019-02-02T00:18:39.913Z,15.93
2019-02-02T00:19:14.420Z,16.77
2019-02-02T00:19:48.921Z,17.05
2019-02-02T00:20:23.443Z,18.67
2019-02-02T00:20:58.030Z,18.45
2019-02-02T00:21:32.559Z,20.37
2019-02-02T00:22:07.360Z,17.95
2019-02-02T00:22:41.869Z,17.07
2019-02-02T00:23:16.372Z,19.73
2019-02-02T00:23:50.919Z,17.67
2019-02-02T00:24:25.542Z,19.07
2019-02-02T00:25:00.093Z,19.23
2019-02-02T00:25:34.753Z,16.93
2019-02-02T00:26:09.373Z,17.48
2019-02-02T00:26:43.973Z,17.02
2019-02-02T00:27:18.661Z,17.07
2019-02-02T00:27:53.173Z,15.35
2019-02-02T00:28:27.681Z,16.17
2019-02-02T00:29:02.225Z,16.75
2019-02-02T00:29:36.859Z,16.95
2019-02-02T00:30:18.432Z,16.17
2019-02-02T00:30:53.048Z,15.35
2019-02-02T00:31:27.726Z,14.63
2019-02-02T00:32:02.290Z,15.63
2019-02-02T00:32:36.792Z,15.55
2019-02-02T00:33:11.301Z,15.98
2019-02-02T00:33:45.908Z,17.52
2019-02-02T00:34:20.472Z,15.08
2019-02-02T00:34:54.989Z,16.42
2019-02-02T00:35:29.581Z,15.30
2019-02-02T00:36:04.293Z,14.80
2019-02-02T00:36:38.868Z,15.90
2019-02-02T00:37:13.402Z,15.72
2019-02-02T00:37:47.965Z,15.40
2019-02-02T00:38:22.492Z,16.10
2019-02-02T00:38:57.343Z,15.03
2019-02-02T00:39:31.904Z,16.75
2019-02-02T00:40:12.056Z,15.03
2019-02-02T00:40:46.649Z,15.60
2019-02-02T00:41:21.181Z,15.72
2019-02-02T00:41:55.739Z,17.05
2019-02-02T00:42:30.325Z,16.07
2019-02-02T00:43:05.752Z,15.53
2019-02-02T00:43:40.425Z,16.05
2019-02-02T00:44:15.164Z,16.52
2019-02-02T00:44:49.681Z,15.68
2019-02-02T00:45:24.210Z,15.35
2019-02-02T00:45:58.722Z,16.45
2019-02-02T00:46:33.234Z,16.27
2019-02-02T00:47:07.756Z,16.05
2019-02-02T00:47:42.563Z,16.30
2019-02-02T00:48:17.146Z,16.87
2019-02-02T00:48:51.666Z,14.03
2019-02-02T00:49:26.164Z,15.55
2019-02-02T00:50:00.688Z,15.65
2019-02-02T00:50:35.352Z,15.13
2019-02-02T00:51:09.854Z,15.90
2019-02-02T00:51:44.442Z,15.95
2019-02-02T00:52:18.943Z,15.40
2019-02-02T00:52:53.514Z,16.35
2019-02-02T00:53:28.181Z,16.55
2019-02-02T00:54:02.923Z,17.65
2019-02-02T00:54:37.563Z,16.57
2019-02-02T00:55:19.047Z,16.57
2019-02-02T00:55:53.613Z,15.03
2019-02-02T00:56:28.107Z,16.20
2019-02-02T00:57:02.613Z,15.93
2019-02-02T00:57:37.158Z,15.93
2019-02-02T00:58:11.729Z,15.40
2019-02-02T00:58:46.238Z,14.07
2019-02-02T00:59:20.766Z,15.35
2019-02-02T00:59:55.297Z,16.17
2019-02-02T01:00:30.114Z,15.10
2019-02-02T01:01:05.569Z,13.90
2019-02-02T01:01:40.088Z,16.55
2019-02-02T01:02:14.783Z,14.68
2019-02-02T01:02:49.519Z,14.65
2019-02-02T01:03:24.032Z,15.70
2019-02-02T01:03:58.545Z,15.48
2019-02-02T01:04:33.084Z,14.93
2019-02-02T01:05:10.843Z,14.63
2019-02-02T01:05:45.488Z,15.45
2019-02-02T01:06:20.113Z,15.85
2019-02-02T01:06:54.706Z,14.23
2019-02-02T01:07:29.335Z,14.70
2019-02-02T01:08:04.300Z,14.20
2019-02-02T01:08:39.591Z,13.83
2019-02-02T01:09:16.153Z,15.00
2019-02-02T01:09:51.019Z,14.35
2019-02-02T01:10:34.348Z,16.00
2019-02-02T01:11:09.005Z,15.10
2019-02-02T01:11:43.507Z,15.32
2019-02-02T01:12:18.214Z,14.33
2019-02-02T01:12:52.977Z,13.35
2019-02-02T01:13:27.487Z,14.45
2019-02-02T01:14:02.050Z,13.80
2019-02-02T01:14:36.588Z,14.28
2019-02-02T01:15:12.960Z,13.38
2019-02-02T01:15:47.490Z,12.30
2019-02-02T01:16:22.134Z,13.98
2019-02-02T01:16:57.307Z,14.05
2019-02-02T01:17:31.874Z,13.83
2019-02-02T01:18:06.728Z,13.13
2019-02-02T01:18:41.235Z,15.08
2019-02-02T01:19:16.308Z,13.93
2019-02-02T01:19:50.813Z,12.80
2019-02-02T01:20:25.422Z,14.40
2019-02-02T01:20:59.998Z,15.53
2019-02-02T01:21:34.570Z,16.30
2019-02-02T01:22:09.151Z,14.90
2019-02-02T01:22:44.121Z,13.98
2019-02-02T01:23:18.716Z,13.78
2019-02-02T01:23:53.230Z,13.90
2019-02-02T01:24:27.802Z,14.47
2019-02-02T01:25:02.391Z,13.43
2019-02-02T01:25:36.995Z,16.00
2019-02-02T01:26:11.648Z,12.33
2019-02-02T01:26:46.176Z,13.10
2019-02-02T01:27:20.757Z,13.15
2019-02-02T01:28:04.946Z,13.40
2019-02-02T01:28:32.287Z,12.95
2019-02-02T01:29:06.788Z,13.45
2019-02-02T01:29:41.400Z,14.00
2019-02-02T01:30:18.685Z,12.85
2019-02-02T01:30:53.321Z,12.93
2019-02-02T01:31:27.880Z,14.03
2019-02-02T01:32:02.409Z,12.95
2019-02-02T01:32:36.914Z,12.30
2019-02-02T01:33:11.513Z,13.60
2019-02-02T01:33:46.344Z,13.45
2019-02-02T01:34:20.884Z,13.45
2019-02-02T01:34:55.494Z,14.38
2019-02-02T01:35:30.179Z,14.45
2019-02-02T01:36:04.950Z,14.28
2019-02-02T01:36:39.554Z,14.38
2019-02-02T01:37:14.313Z,13.58
2019-02-02T01:37:48.841Z,14.43
2019-02-02T01:38:23.384Z,12.95
2019-02-02T01:38:57.985Z,13.68
2019-02-02T01:39:33.396Z,13.13
2019-02-02T01:40:11.564Z,14.60
2019-02-02T01:40:46.072Z,13.55
2019-02-02T01:41:20.660Z,13.93
2019-02-02T01:41:55.155Z,13.43
2019-02-02T01:42:29.668Z,13.72
2019-02-02T01:43:04.731Z,12.80
2019-02-02T01:43:39.317Z,14.28
2019-02-02T01:44:13.913Z,12.03
2019-02-02T01:44:48.423Z,12.88
2019-02-02T01:45:27.729Z,13.58
2019-02-02T01:46:02.261Z,13.15
2019-02-02T01:46:36.839Z,14.07
2019-02-02T01:47:11.340Z,13.60
2019-02-02T01:47:45.987Z,13.85
2019-02-02T01:48:20.505Z,13.62
2019-02-02T01:48:55.482Z,13.72
2019-02-02T01:49:30.003Z,13.70
2019-02-02T01:50:07.323Z,14.43
2019-02-02T01:50:41.824Z,13.83
2019-02-02T01:51:16.341Z,14.33
2019-02-02T01:51:50.920Z,15.85
2019-02-02T01:52:25.450Z,15.18
2019-02-02T01:53:00.032Z,14.33
2019-02-02T01:53:34.537Z,15.08
2019-02-02T01:54:09.123Z,12.75
2019-02-02T01:54:43.698Z,14.10
2019-02-02T01:55:19.076Z,14.47
2019-02-02T01:55:53.658Z,13.65
2019-02-02T01:56:28.220Z,14.33
2019-02-02T01:57:03.037Z,13.65
2019-02-02T01:57:37.682Z,13.58
2019-02-02T01:58:17.014Z,13.40
2019-02-02T01:58:48.501Z,13.40
2019-02-02T01:59:23.081Z,13.53
2019-02-02T01:59:57.667Z,14.53
2019-02-02T02:00:35.961Z,13.98
2019-02-02T02:01:10.624Z,15.35
2019-02-02T02:01:45.140Z,16.00
2019-02-02T02:02:25.393Z,14.38
2019-02-02T02:03:00.140Z,15.03
2019-02-02T02:03:34.647Z,14.73
2019-02-02T02:04:09.212Z,13.20
2019-02-02T02:04:43.771Z,13.22
2019-02-02T02:05:18.437Z,14.98
2019-02-02T02:05:52.972Z,13.15
2019-02-02T02:06:27.625Z,13.50
2019-02-02T02:07:02.208Z,13.95
2019-02-02T02:07:36.799Z,13.55
2019-02-02T02:08:11.575Z,14.07
2019-02-02T02:08:46.388Z,14.53
2019-02-02T02:09:20.963Z,14.15
2019-02-02T02:09:55.553Z,15.25
2019-02-02T02:10:30.106Z,14.03
2019-02-02T02:11:05.105Z,13.70
2019-02-02T02:11:39.640Z,13.30
2019-02-02T02:12:14.440Z,13.10
2019-02-02T02:12:50.158Z,14.47
2019-02-02T02:13:24.752Z,15.95
2019-02-02T02:13:59.373Z,14.10
2019-02-02T02:14:34.241Z,14.40
2019-02-02T02:15:14.546Z,14.25
2019-02-02T02:15:52.310Z,14.55
2019-02-02T02:16:26.857Z,13.83
2019-02-02T02:17:01.433Z,12.55
2019-02-02T02:17:35.972Z,14.68
2019-02-02T02:18:10.829Z,14.43
2019-02-02T02:18:45.682Z,14.78
2019-02-02T02:19:20.563Z,14.28
2019-02-02T02:19:55.136Z,16.02
2019-02-02T02:20:29.695Z,14.38
2019-02-02T02:21:04.289Z,13.55
2019-02-02T02:21:38.983Z,13.93
2019-02-02T02:22:13.591Z,14.70
2019-02-02T02:22:49.564Z,15.10
2019-02-02T02:23:24.139Z,13.40
2019-02-02T02:23:58.645Z,13.93
2019-02-02T02:24:33.167Z,14.83
2019-02-02T02:25:10.618Z,14.50
2019-02-02T02:25:45.216Z,15.55
2019-02-02T02:26:20.558Z,14.60
2019-02-02T02:26:55.206Z,14.10
2019-02-02T02:27:29.706Z,13.58
2019-02-02T02:28:04.341Z,14.45
2019-02-02T02:28:38.942Z,12.78
2019-02-02T02:29:13.581Z,13.13
2019-02-02T02:29:48.144Z,14.85
2019-02-02T02:30:25.996Z,13.88
2019-02-02T02:31:00.564Z,13.40
2019-02-02T02:31:35.596Z,14.05
2019-02-02T02:32:10.112Z,14.73
2019-02-02T02:32:44.951Z,16.55
2019-02-02T02:33:19.552Z,13.35
2019-02-02T02:34:03.412Z,12.98
2019-02-02T02:34:37.969Z,14.23
2019-02-02T02:35:12.771Z,14.15
2019-02-02T02:35:48.088Z,13.88
2019-02-02T02:36:22.665Z,15.08
2019-02-02T02:36:57.580Z,14.00
2019-02-02T02:37:32.163Z,13.32
2019-02-02T02:38:06.657Z,14.55
2019-02-02T02:38:41.208Z,13.08
2019-02-02T02:39:15.722Z,13.98
2019-02-02T02:39:50.301Z,15.13
2019-02-02T02:40:25.184Z,13.45
2019-02-02T02:40:59.774Z,14.18
2019-02-02T02:41:34.428Z,14.75
2019-02-02T02:42:08.944Z,14.07
2019-02-02T02:42:43.499Z,12.50
2019-02-02T02:43:19.088Z,13.13
2019-02-02T02:43:53.597Z,14.65
2019-02-02T02:44:28.180Z,13.30
2019-02-02T02:45:02.692Z,14.28
2019-02-02T02:45:38.990Z,13.18
2019-02-02T02:46:13.712Z,14.05
2019-02-02T02:46:48.364Z,13.43
2019-02-02T02:47:23.222Z,13.80
2019-02-02T02:47:57.724Z,12.45
2019-02-02T02:48:32.354Z,14.03
2019-02-02T02:49:06.949Z,13.90
2019-02-02T02:49:41.651Z,13.58
2019-02-02T02:50:18.268Z,13.53
2019-02-02T02:50:52.901Z,13.55
2019-02-02T02:51:27.487Z,13.85
2019-02-02T02:52:02.008Z,13.25
2019-02-02T02:52:38.185Z,12.95
2019-02-02T02:53:13.070Z,12.98
2019-02-02T02:53:48.391Z,13.10
2019-02-02T02:54:22.902Z,12.45
2019-02-02T02:54:57.467Z,13.75
2019-02-02T02:55:31.962Z,13.83
2019-02-02T02:56:07.480Z,13.85
2019-02-02T02:56:41.987Z,14.20
2019-02-02T02:57:16.885Z,12.50
2019-02-02T02:57:51.393Z,13.32
2019-02-02T02:58:25.925Z,14.50
2019-02-02T02:59:00.436Z,13.65
2019-02-02T02:59:34.946Z,14.00
2019-02-02T03:00:17.784Z,13.13
2019-02-02T03:00:52.303Z,14.15
2019-02-02T03:01:26.876Z,14.25
2019-02-02T03:02:01.563Z,13.43
2019-02-02T03:02:36.388Z,14.53
2019-02-02T03:03:10.911Z,14.38
2019-02-02T03:03:45.469Z,14.60
2019-02-02T03:04:19.966Z,14.63
2019-02-02T03:04:55.902Z,13.15
2019-02-02T03:05:30.444Z,11.97
2019-02-02T03:06:05.201Z,14.65
2019-02-02T03:06:39.803Z,13.43
2019-02-02T03:07:14.326Z,13.95
2019-02-02T03:07:50.175Z,14.28
2019-02-02T03:08:24.745Z,12.78
2019-02-02T03:08:59.255Z,13.58
2019-02-02T03:09:33.767Z,14.87
2019-02-02T03:10:14.386Z,13.80
2019-02-02T03:10:49.237Z,12.73
2019-02-02T03:11:23.847Z,13.20
2019-02-02T03:11:58.806Z,14.25
2019-02-02T03:12:34.293Z,13.05
2019-02-02T03:13:08.863Z,14.28
2019-02-02T03:13:43.358Z,14.15
2019-02-02T03:14:17.980Z,13.55
2019-02-02T03:14:52.557Z,13.45
2019-02-02T03:15:27.323Z,14.15
2019-02-02T03:16:01.861Z,12.78
2019-02-02T03:16:36.461Z,13.80
2019-02-02T03:17:11.181Z,13.55
2019-02-02T03:17:46.425Z,14.25
2019-02-02T03:18:21.009Z,15.13
2019-02-02T03:18:55.529Z,13.20
2019-02-02T03:19:30.112Z,14.87
2019-02-02T03:20:07.547Z,13.55
2019-02-02T03:20:42.188Z,13.53
2019-02-02T03:21:16.754Z,12.35
2019-02-02T03:21:51.335Z,13.35
2019-02-02T03:22:25.851Z,13.13
2019-02-02T03:23:00.383Z,13.28
2019-02-02T03:23:35.042Z,13.20
2019-02-02T03:24:09.711Z,13.45
2019-02-02T03:24:44.297Z,14.70
2019-02-02T03:25:24.749Z,14.60
2019-02-02T03:25:59.284Z,14.93
2019-02-02T03:26:33.829Z,13.03
2019-02-02T03:27:08.340Z,13.25
2019-02-02T03:27:42.918Z,13.22
2019-02-02T03:28:17.446Z,14.35
2019-02-02T03:28:53.702Z,14.43
2019-02-02T03:29:28.464Z,12.58
2019-02-02T03:30:03.134Z,13.68
2019-02-02T03:30:57.034Z,12.45
2019-02-02T03:31:32.072Z,12.50
2019-02-02T03:32:06.658Z,13.60
2019-02-02T03:32:41.229Z,13.30
2019-02-02T03:33:15.817Z,13.95
2019-02-02T03:33:50.403Z,13.25
2019-02-02T03:34:24.957Z,13.72
2019-02-02T03:34:59.529Z,12.78
2019-02-02T03:35:34.087Z,12.90
2019-02-02T03:36:08.677Z,13.50
2019-02-02T03:36:43.178Z,13.50
2019-02-02T03:37:17.679Z,13.48
2019-02-02T03:37:52.858Z,13.43
2019-02-02T03:38:27.420Z,13.98
2019-02-02T03:39:01.941Z,13.85
2019-02-02T03:39:36.459Z,14.05
2019-02-02T03:40:13.708Z,14.07
2019-02-02T03:40:48.263Z,11.90
2019-02-02T03:41:22.850Z,13.22
2019-02-02T03:41:57.372Z,12.65
2019-02-02T03:42:32.005Z,13.10
2019-02-02T03:43:06.567Z,13.45
2019-02-02T03:43:41.124Z,14.47
2019-02-02T03:44:15.705Z,12.95
2019-02-02T03:44:50.286Z,14.00
2019-02-02T03:45:24.872Z,13.40
2019-02-02T03:45:59.453Z,13.38
2019-02-02T03:46:33.945Z,14.23
2019-02-02T03:47:08.445Z,14.78
2019-02-02T03:47:43.013Z,13.20
2019-02-02T03:48:17.580Z,12.45
2019-02-02T03:48:52.185Z,12.15
2019-02-02T03:49:26.760Z,12.75
2019-02-02T03:50:01.577Z,12.25
2019-02-02T03:50:36.200Z,12.90
2019-02-02T03:51:10.712Z,15.00
2019-02-02T03:51:45.330Z,13.22
2019-02-02T03:52:19.908Z,14.13
2019-02-02T03:52:54.479Z,13.22
2019-02-02T03:53:29.057Z,12.30
2019-02-02T03:54:09.021Z,12.40
2019-02-02T03:54:40.276Z,11.53
2019-02-02T03:55:16.392Z,13.10
2019-02-02T03:55:50.898Z,13.28
2019-02-02T03:56:25.780Z,11.50
2019-02-02T03:57:00.297Z,13.32
2019-02-02T03:57:35.134Z,13.00
2019-02-02T03:58:09.704Z,13.10
2019-02-02T03:58:44.383Z,11.70
2019-02-02T03:59:18.961Z,13.28
2019-02-02T03:59:53.464Z,12.45
2019-02-02T04:00:27.969Z,13.85
2019-02-02T04:01:02.481Z,13.75
2019-02-02T04:01:36.989Z,14.80
2019-02-02T04:02:11.559Z,13.40
2019-02-02T04:02:46.455Z,13.88
2019-02-02T04:03:21.431Z,12.10
2019-02-02T04:03:55.948Z,13.48
2019-02-02T04:04:30.533Z,12.82
2019-02-02T04:05:08.055Z,12.90
2019-02-02T04:05:42.564Z,12.68
2019-02-02T04:06:17.625Z,12.05
2019-02-02T04:06:52.152Z,11.43
2019-02-02T04:07:26.691Z,13.32
2019-02-02T04:08:01.263Z,13.08
2019-02-02T04:08:35.772Z,13.20
2019-02-02T04:09:10.365Z,13.18
2019-02-02T04:09:44.878Z,12.68
2019-02-02T04:10:19.635Z,14.40
2019-02-02T04:10:54.174Z,13.95
2019-02-02T04:11:28.813Z,12.23
2019-02-02T04:12:03.561Z,12.82
2019-02-02T04:12:38.273Z,12.10
2019-02-02T04:13:12.840Z,12.68
2019-02-02T04:13:47.341Z,13.48
2019-02-02T04:14:21.845Z,12.63
2019-02-02T04:14:56.357Z,13.93
2019-02-02T04:15:30.992Z,13.88
2019-02-02T04:16:05.561Z,15.50
2019-02-02T04:16:40.484Z,12.28
2019-02-02T04:17:15.052Z,12.63
2019-02-02T04:17:49.722Z,13.00
2019-02-02T04:18:24.304Z,11.73
2019-02-02T04:18:58.879Z,13.03
2019-02-02T04:19:33.452Z,13.20
2019-02-02T04:20:11.170Z,12.13
2019-02-02T04:20:45.751Z,13.18
2019-02-02T04:21:20.461Z,12.80
2019-02-02T04:21:54.983Z,13.80
2019-02-02T04:22:29.491Z,13.55
2019-02-02T04:23:04.284Z,12.85
2019-02-02T04:23:38.859Z,13.03
2019-02-02T04:24:13.416Z,12.47
2019-02-02T04:24:47.927Z,14.00
2019-02-02T04:25:23.368Z,12.98
2019-02-02T04:25:59.133Z,13.32
2019-02-02T04:26:33.716Z,14.40
2019-02-02T04:27:08.492Z,13.68
2019-02-02T04:27:43.087Z,12.98
2019-02-02T04:28:17.647Z,12.95
2019-02-02T04:28:52.342Z,13.88
2019-02-02T04:29:26.985Z,13.60
2019-02-02T04:30:01.656Z,13.18
2019-02-02T04:30:38.097Z,14.43
2019-02-02T04:31:13.251Z,14.15
2019-02-02T04:31:48.369Z,13.20
2019-02-02T04:32:22.960Z,13.22
2019-02-02T04:32:57.621Z,12.28
2019-02-02T04:33:32.226Z,12.60
2019-02-02T04:34:06.784Z,13.85
2019-02-02T04:34:41.345Z,13.55
2019-02-02T04:35:16.007Z,12.28
2019-02-02T04:35:50.855Z,13.75
2019-02-02T04:36:25.385Z,13.83
2019-02-02T04:36:59.961Z,11.65
2019-02-02T04:37:34.467Z,12.98
2019-02-02T04:38:08.985Z,13.78
2019-02-02T04:38:43.496Z,15.15
2019-02-02T04:39:18.013Z,13.28
2019-02-02T04:39:52.527Z,12.55
2019-02-02T04:40:27.067Z,13.10
2019-02-02T04:41:01.636Z,13.65
2019-02-02T04:41:36.243Z,15.43
2019-02-02T04:42:10.753Z,13.75
2019-02-02T04:42:45.679Z,13.05
2019-02-02T04:43:20.236Z,15.10
2019-02-02T04:43:54.781Z,12.68
2019-02-02T04:44:29.292Z,12.82
2019-02-02T04:45:04.671Z,13.83
2019-02-02T04:45:39.205Z,13.95
2019-02-02T04:46:13.839Z,12.82
2019-02-02T04:46:48.406Z,13.70
2019-02-02T04:47:23.050Z,13.98
2019-02-02T04:47:57.641Z,11.12
2019-02-02T04:48:32.665Z,12.78
2019-02-02T04:49:07.269Z,15.00
2019-02-02T04:49:41.783Z,13.50
2019-02-02T04:50:21.253Z,13.70
2019-02-02T04:50:55.911Z,13.98
2019-02-02T04:51:30.509Z,13.22
2019-02-02T04:52:05.019Z,12.23
2019-02-02T04:52:39.648Z,13.35
2019-02-02T04:53:14.189Z,13.13
2019-02-02T04:53:48.839Z,12.60
2019-02-02T04:54:23.397Z,13.93
2019-02-02T04:54:57.918Z,13.13
2019-02-02T04:55:32.416Z,12.82
2019-02-02T04:56:06.967Z,11.90
2019-02-02T04:56:41.531Z,12.85
2019-02-02T04:57:16.066Z,11.60
2019-02-02T04:57:50.660Z,12.55
2019-02-02T04:58:25.270Z,13.08
2019-02-02T04:58:59.901Z,11.90
2019-02-02T04:59:34.735Z,12.90
2019-02-02T05:00:12.413Z,11.97
2019-02-02T05:00:46.936Z,12.75
2019-02-02T05:01:21.515Z,12.60
2019-02-02T05:01:56.102Z,12.50
2019-02-02T05:02:30.684Z,11.85
2019-02-02T05:03:05.312Z,11.10
2019-02-02T05:03:39.840Z,12.45
2019-02-02T05:04:14.389Z,10.50
2019-02-02T05:04:48.947Z,12.25
2019-02-02T05:05:23.537Z,11.73
2019-02-02T05:05:58.104Z,12.90
2019-02-02T05:06:32.629Z,11.40
2019-02-02T05:07:07.192Z,13.10
2019-02-02T05:07:41.698Z,11.38
2019-02-02T05:08:16.238Z,14.75
2019-02-02T05:08:50.795Z,11.93
2019-02-02T05:09:25.366Z,10.40
2019-02-02T05:09:59.908Z,12.47
2019-02-02T05:10:34.448Z,10.45
2019-02-02T05:11:08.953Z,10.78
2019-02-02T05:11:43.514Z,12.80
2019-02-02T05:12:18.155Z,10.93
2019-02-02T05:12:53.180Z,12.03
2019-02-02T05:13:27.677Z,13.05
2019-02-02T05:14:02.202Z,10.45
2019-02-02T05:14:36.752Z,11.68
2019-02-02T05:15:11.957Z,11.30
2019-02-02T05:15:47.856Z,10.23
2019-02-02T05:16:23.508Z,11.57
2019-02-02T05:16:58.005Z,10.68
2019-02-02T05:17:32.512Z,11.28
2019-02-02T05:18:07.019Z,10.85
2019-02-02T05:18:41.535Z,10.25
2019-02-02T05:19:16.039Z,10.58
2019-02-02T05:19:50.559Z,10.48
2019-02-02T05:20:25.224Z,12.78
2019-02-02T05:20:59.721Z,11.15
2019-02-02T05:21:34.231Z,10.43
2019-02-02T05:22:08.773Z,11.53
2019-02-02T05:22:44.198Z,10.70
2019-02-02T05:23:18.716Z,11.40
2019-02-02T05:23:53.373Z,11.83
2019-02-02T05:24:27.886Z,11.25
2019-02-02T05:25:02.395Z,10.80
2019-02-02T05:25:36.899Z,9.80
2019-02-02T05:26:11.508Z,10.90
2019-02-02T05:26:47.708Z,10.63
2019-02-02T05:27:22.378Z,11.63
2019-02-02T05:27:56.915Z,10.60
2019-02-02T05:28:31.491Z,9.58
2019-02-02T05:29:06.050Z,10.68
2019-02-02T05:29:41.751Z,10.65
2019-02-02T05:30:23.060Z,10.72
2019-02-02T05:30:58.008Z,10.68
2019-02-02T05:31:32.510Z,10.25
2019-02-02T05:32:07.005Z,9.65
2019-02-02T05:32:41.834Z,11.43
2019-02-02T05:33:16.359Z,10.55
2019-02-02T05:33:53.663Z,9.38
2019-02-02T05:34:27.212Z,9.78
2019-02-02T05:35:01.722Z,9.98
2019-02-02T05:35:36.298Z,10.20
2019-02-02T05:36:10.846Z,10.58
2019-02-02T05:36:45.425Z,10.08
2019-02-02T05:37:20.454Z,11.10
2019-02-02T05:37:55.151Z,9.90
2019-02-02T05:38:30.955Z,10.63
2019-02-02T05:39:07.682Z,11.22
2019-02-02T05:39:42.167Z,9.13
2019-02-02T05:40:21.630Z,9.88
2019-02-02T05:40:56.132Z,9.98
2019-02-02T05:41:30.633Z,10.32
2019-02-02T05:42:05.563Z,10.70
2019-02-02T05:42:40.074Z,10.00
2019-02-02T05:43:14.614Z,9.98
2019-02-02T05:43:49.172Z,10.00
2019-02-02T05:44:23.753Z,10.03
2019-02-02T05:44:58.452Z,9.65
2019-02-02T05:45:33.039Z,9.33
2019-02-02T05:46:07.613Z,10.45
2019-02-02T05:46:42.310Z,9.90
2019-02-02T05:47:18.392Z,10.20
2019-02-02T05:47:52.916Z,8.75
2019-02-02T05:48:27.493Z,9.23
2019-02-02T05:49:02.016Z,9.00
2019-02-02T05:49:36.932Z,10.30
2019-02-02T05:50:14.579Z,10.00
2019-02-02T05:50:49.184Z,10.45
2019-02-02T05:51:23.867Z,9.20
2019-02-02T05:51:58.539Z,9.18
2019-02-02T05:52:33.066Z,9.03
2019-02-02T05:53:07.583Z,8.20
2019-02-02T05:53:42.170Z,9.83
2019-02-02T05:54:16.722Z,9.93
2019-02-02T05:54:51.249Z,9.48
2019-02-02T05:55:25.771Z,10.05
2019-02-02T05:56:00.267Z,9.40
2019-02-02T05:56:34.804Z,9.55
2019-02-02T05:57:09.491Z,9.48
2019-02-02T05:57:44.088Z,9.45
2019-02-02T05:58:18.662Z,9.10
2019-02-02T05:58:53.187Z,10.28
2019-02-02T05:59:27.750Z,9.50
2019-02-02T06:00:02.330Z,10.40
2019-02-02T06:00:38.540Z,9.28
2019-02-02T06:01:14.751Z,9.60
2019-02-02T06:01:49.327Z,10.05
2019-02-02T06:02:24.056Z,9.60
2019-02-02T06:02:58.615Z,9.58
2019-02-02T06:03:33.555Z,9.98
2019-02-02T06:04:08.088Z,9.68
2019-02-02T06:04:42.621Z,10.35
2019-02-02T06:05:17.193Z,10.20
2019-02-02T06:05:51.820Z,11.83
2019-02-02T06:06:26.319Z,9.95
2019-02-02T06:07:00.915Z,9.70
2019-02-02T06:07:35.426Z,9.35
2019-02-02T06:08:09.942Z,9.55
2019-02-02T06:08:45.163Z,10.18
2019-02-02T06:09:22.523Z,8.75
2019-02-02T06:09:56.078Z,10.58
2019-02-02T06:10:30.667Z,9.70
2019-02-02T06:11:05.220Z,9.90
2019-02-02T06:11:39.722Z,10.13
2019-02-02T06:12:14.248Z,10.03
2019-02-02T06:12:49.494Z,9.20
2019-02-02T06:13:23.989Z,9.85
2019-02-02T06:13:58.528Z,9.60
2019-02-02T06:14:33.243Z,10.03
2019-02-02T06:15:08.288Z,8.48
2019-02-02T06:15:42.822Z,9.58
2019-02-02T06:16:17.354Z,8.70
2019-02-02T06:16:51.880Z,9.38
2019-02-02T06:17:26.437Z,10.15
2019-02-02T06:18:01.250Z,9.48
2019-02-02T06:18:35.925Z,8.50
2019-02-02T06:19:10.461Z,9.05
2019-02-02T06:19:45.013Z,10.68
2019-02-02T06:20:19.581Z,9.28
2019-02-02T06:20:54.097Z,10.10
2019-02-02T06:21:28.641Z,10.05
2019-02-02T06:22:03.204Z,9.45
2019-02-02T06:22:37.745Z,10.85
2019-02-02T06:23:12.392Z,9.63
2019-02-02T06:23:46.990Z,9.70
2019-02-02T06:24:21.489Z,9.85
2019-02-02T06:24:56.012Z,9.00
2019-02-02T06:25:30.592Z,10.20
2019-02-02T06:26:05.261Z,10.65
2019-02-02T06:26:39.770Z,9.95
2019-02-02T06:27:17.229Z,10.15
2019-02-02T06:27:51.733Z,10.08
2019-02-02T06:28:26.268Z,9.90
2019-02-02T06:29:00.775Z,10.50
2019-02-02T06:29:35.298Z,11.00
2019-02-02T06:30:15.716Z,10.00
2019-02-02T06:30:50.327Z,10.03
2019-02-02T06:31:24.983Z,11.55
2019-02-02T06:32:10.973Z,10.50
2019-02-02T06:32:35.846Z,9.60
2019-02-02T06:33:10.362Z,10.15
2019-02-02T06:33:44.868Z,11.12
2019-02-02T06:34:19.448Z,9.73
2019-02-02T06:34:53.963Z,10.32
2019-02-02T06:35:28.477Z,10.72
2019-02-02T06:36:03.621Z,8.80
2019-02-02T06:36:38.359Z,10.18
2019-02-02T06:37:12.855Z,9.93
2019-02-02T06:37:47.438Z,10.20
2019-02-02T06:38:22.009Z,9.63
2019-02-02T06:38:56.644Z,10.68
2019-02-02T06:39:31.213Z,10.53
2019-02-02T06:40:08.657Z,10.00
2019-02-02T06:41:02.545Z,10.18
2019-02-02T06:41:37.049Z,10.50
2019-02-02T06:42:11.657Z,9.18
2019-02-02T06:42:46.408Z,10.10
2019-02-02T06:43:20.925Z,9.45
2019-02-02T06:43:55.490Z,9.98
2019-02-02T06:44:30.110Z,10.10
2019-02-02T06:45:09.250Z,11.75
2019-02-02T06:45:45.911Z,10.82
2019-02-02T06:46:20.471Z,11.65
2019-02-02T06:46:54.960Z,9.90
2019-02-02T06:47:29.468Z,11.18
2019-02-02T06:48:04.614Z,10.55
2019-02-02T06:48:39.189Z,11.00
2019-02-02T06:49:13.692Z,10.35
2019-02-02T06:49:48.221Z,10.93
2019-02-02T06:50:22.734Z,9.40
2019-02-02T06:50:57.238Z,12.37
2019-02-02T06:51:31.764Z,10.28
2019-02-02T06:52:06.364Z,10.00
2019-02-02T06:52:40.979Z,10.10
2019-02-02T06:53:15.556Z,10.98
2019-02-02T06:53:50.081Z,10.08
2019-02-02T06:54:24.585Z,10.15
2019-02-02T06:54:59.098Z,10.25
2019-02-02T06:55:33.589Z,9.93
2019-02-02T06:56:08.108Z,10.10
2019-02-02T06:56:42.645Z,10.05
2019-02-02T06:57:17.180Z,10.53
2019-02-02T06:57:51.716Z,11.20
2019-02-02T06:58:26.281Z,9.43
2019-02-02T06:59:00.780Z,9.28
2019-02-02T06:59:35.390Z,9.93
2019-02-02T07:00:18.451Z,10.40
2019-02-02T07:00:53.034Z,10.23
2019-02-02T07:01:27.625Z,10.93
2019-02-02T07:02:02.261Z,8.03
2019-02-02T07:02:36.854Z,10.32
2019-02-02T07:03:12.519Z,10.75
2019-02-02T07:03:47.013Z,9.60
2019-02-02T07:04:21.516Z,8.83
2019-02-02T07:04:56.131Z,9.98
2019-02-02T07:05:33.620Z,10.38
2019-02-02T07:06:06.926Z,10.82
2019-02-02T07:06:41.485Z,9.43
2019-02-02T07:07:16.430Z,10.70
2019-02-02T07:07:50.962Z,10.43
2019-02-02T07:08:25.594Z,10.53
2019-02-02T07:09:00.161Z,10.08
2019-02-02T07:09:34.651Z,9.50
2019-02-02T07:10:12.366Z,9.55
2019-02-02T07:10:46.911Z,9.83
2019-02-02T07:11:21.466Z,9.18
2019-02-02T07:11:55.970Z,10.65
2019-02-02T07:12:30.567Z,10.30
2019-02-02T07:13:05.444Z,10.65
2019-02-02T07:13:40.083Z,9.65
2019-02-02T07:14:14.581Z,10.95
2019-02-02T07:14:49.090Z,10.00
2019-02-02T07:15:25.971Z,9.80
2019-02-02T07:16:00.534Z,9.10
2019-02-02T07:16:35.175Z,10.72
2019-02-02T07:17:09.688Z,9.10
2019-02-02T07:17:44.210Z,9.70
2019-02-02T07:18:18.783Z,10.25
2019-02-02T07:18:53.289Z,10.15
2019-02-02T07:19:29.208Z,10.38
2019-02-02T07:20:10.184Z,11.00
2019-02-02T07:20:44.761Z,9.08
2019-02-02T07:21:19.264Z,10.95
2019-02-02T07:21:53.775Z,10.58
2019-02-02T07:22:28.345Z,10.03
2019-02-02T07:23:02.912Z,10.13
2019-02-02T07:23:37.470Z,8.95
2019-02-02T07:24:11.983Z,10.15
2019-02-02T07:24:46.558Z,10.38
2019-02-02T07:25:22.866Z,10.65
2019-02-02T07:25:57.987Z,11.10
2019-02-02T07:26:34.534Z,10.48
2019-02-02T07:27:09.108Z,10.48
2019-02-02T07:27:43.616Z,10.20
2019-02-02T07:28:18.126Z,11.00
2019-02-02T07:28:52.636Z,9.28
2019-02-02T07:29:27.201Z,10.72
2019-02-02T07:30:01.709Z,10.55
2019-02-02T07:30:36.291Z,11.10
2019-02-02T07:31:10.774Z,10.30
2019-02-02T07:31:45.309Z,9.40